Haleyville, Alabama
Current Conditions -  °F | °C
As of 5:56 AM on Saturday 20 Dec 2014 (Local Time) from K1M4 Reporting Station
Haze Haze  
Wind Chill:   Ceiling: Unl
Heat Index:   Visibility: 5mi
Dew Point: -1°   Wind: 0mph
Humidity: 100%   Direction: NA
Pressure: 30.22"   Gusts: NA
Location:  34.23°N, 87.62°W
Report Text: K1M4 201156Z AUTO 00000KT 5SM BR CLR M01/M01 A3022 RMK AO2 53004 60001 70005 T10051005 10016 21005 SLP242 $
Loading
Personal Weather Stations






























Interactive Weather Map New forecast layout! Learn more

10-Day Weather Forecast

Advertisements
Track Severe Weather on mobile